createdAt,value
2022-12-01T00:00:01.760Z,2.98
2022-12-01T00:02:33.098Z,2.96
2022-12-01T00:05:02.668Z,2.94
2022-12-01T00:07:33.590Z,2.90
2022-12-01T00:10:22.242Z,2.87
2022-12-01T00:12:53.342Z,2.83
2022-12-01T00:15:26.739Z,2.76
2022-12-01T00:17:57.695Z,2.71
2022-12-01T00:20:28.826Z,2.67
2022-12-01T00:22:59.762Z,2.61
2022-12-01T00:25:30.965Z,2.56
2022-12-01T00:28:00.260Z,2.50
2022-12-01T00:30:31.362Z,2.43
2022-12-01T00:33:03.214Z,2.36
2022-12-01T00:35:34.311Z,2.31
2022-12-01T00:38:05.430Z,2.26
2022-12-01T00:40:34.915Z,2.22
2022-12-01T00:43:05.797Z,2.15
2022-12-01T00:45:36.866Z,2.10
2022-12-01T00:48:07.844Z,2.05
2022-12-01T00:50:38.775Z,1.99
2022-12-01T00:53:09.677Z,1.94
2022-12-01T00:55:41.304Z,1.92
2022-12-01T00:58:12.861Z,1.89
2022-12-01T01:00:44.062Z,1.85
2022-12-01T01:03:15.122Z,1.81
2022-12-01T01:05:46.233Z,1.77
2022-12-01T01:08:17.598Z,1.75
2022-12-01T01:10:49.997Z,1.71
2022-12-01T01:13:20.835Z,1.68
2022-12-01T01:16:01.985Z,1.64
2022-12-01T01:18:33.284Z,1.60
2022-12-01T01:21:06.518Z,1.56
2022-12-01T01:23:37.569Z,1.53
2022-12-01T01:26:10.083Z,1.51
2022-12-01T01:28:41.701Z,1.48
2022-12-01T01:31:15.651Z,1.44
2022-12-01T01:33:47.324Z,1.33
2022-12-01T01:36:19.490Z,1.24
2022-12-01T01:38:51.755Z,1.16
2022-12-01T01:41:23.879Z,1.13
2022-12-01T01:43:57.262Z,1.09
2022-12-01T01:46:30.477Z,1.07
2022-12-01T01:49:04.254Z,1.07
2022-12-01T01:51:44.934Z,1.06
2022-12-01T01:54:26.122Z,0.98
2022-12-01T01:56:58.645Z,0.88
2022-12-01T01:59:32.836Z,0.84
2022-12-01T02:02:07.159Z,0.83
2022-12-01T02:04:41.316Z,0.79
2022-12-01T02:07:16.392Z,0.73
2022-12-01T02:09:48.148Z,0.68
2022-12-01T02:12:37.600Z,0.67
2022-12-01T02:15:21.811Z,0.73
2022-12-01T02:17:56.388Z,0.82
2022-12-01T02:21:21.400Z,0.90
2022-12-01T02:24:28.082Z,1.04
2022-12-01T02:27:05.992Z,1.14
2022-12-01T02:30:03.290Z,1.26
2022-12-01T02:32:38.895Z,1.36
2022-12-01T02:35:15.780Z,1.42
2022-12-01T02:37:56.989Z,1.49
2022-12-01T02:40:32.495Z,1.55
2022-12-01T02:43:10.263Z,1.60
2022-12-01T02:45:47.017Z,1.66
2022-12-01T02:48:23.755Z,1.72
2022-12-01T02:50:59.742Z,1.76
2022-12-01T02:53:30.719Z,1.77
2022-12-01T02:56:01.776Z,1.77
2022-12-01T02:58:33.908Z,1.76
2022-12-01T03:01:28.800Z,1.73
2022-12-01T03:04:22.208Z,1.70
2022-12-01T03:07:03.667Z,1.68
2022-12-01T03:09:47.893Z,1.65
2022-12-01T03:12:26.352Z,1.62
2022-12-01T03:15:03.459Z,1.60
2022-12-01T03:17:47.102Z,1.59
2022-12-01T03:20:24.817Z,1.58
2022-12-01T03:23:01.268Z,1.57
2022-12-01T03:25:33.781Z,1.57
2022-12-01T03:28:22.587Z,1.54
2022-12-01T03:30:58.911Z,1.53
2022-12-01T03:33:35.309Z,1.51
2022-12-01T03:36:11.967Z,1.49
2022-12-01T03:38:49.973Z,1.48
2022-12-01T03:41:29.301Z,1.47
2022-12-01T03:44:07.302Z,1.47
2022-12-01T03:46:48.972Z,1.48
2022-12-01T03:49:21.859Z,1.48
2022-12-01T03:52:03.425Z,1.47
2022-12-01T03:54:45.353Z,1.46
2022-12-01T03:57:25.417Z,1.42
2022-12-01T03:59:56.783Z,1.39
2022-12-01T04:02:30.103Z,1.38
2022-12-01T04:05:01.391Z,1.38
2022-12-01T04:07:32.519Z,1.37
2022-12-01T04:10:03.560Z,1.36
2022-12-01T04:12:34.038Z,1.35
2022-12-01T04:15:08.120Z,1.34
2022-12-01T04:17:39.790Z,1.37
2022-12-01T04:20:12.333Z,1.38
2022-12-01T04:22:44.118Z,1.37
2022-12-01T04:25:13.600Z,1.36
2022-12-01T04:27:44.496Z,1.34
2022-12-01T04:30:16.485Z,1.34
2022-12-01T04:32:48.005Z,1.34
2022-12-01T04:35:19.042Z,1.34
2022-12-01T04:37:50.202Z,1.34
2022-12-01T04:40:21.857Z,1.35
2022-12-01T04:43:07.135Z,1.37
2022-12-01T04:45:39.376Z,1.35
2022-12-01T04:48:10.589Z,1.30
2022-12-01T04:50:41.666Z,1.26
2022-12-01T04:53:13.007Z,1.26
2022-12-01T04:55:43.986Z,1.26
2022-12-01T04:58:14.844Z,1.25
2022-12-01T05:00:46.073Z,1.25
2022-12-01T05:03:17.539Z,1.22
2022-12-01T05:05:47.082Z,1.17
2022-12-01T05:08:18.179Z,1.09
2022-12-01T05:10:49.334Z,1.05
2022-12-01T05:13:19.926Z,1.00
2022-12-01T05:15:51.046Z,0.93
2022-12-01T05:18:22.000Z,0.90
2022-12-01T05:20:59.248Z,0.91
2022-12-01T05:23:32.558Z,0.89
2022-12-01T05:26:04.507Z,0.85
2022-12-01T05:28:36.066Z,0.80
2022-12-01T05:31:07.294Z,0.75
2022-12-01T05:33:38.284Z,0.73
2022-12-01T05:36:10.763Z,0.70
2022-12-01T05:38:41.844Z,0.70
2022-12-01T05:41:12.933Z,0.69
2022-12-01T05:43:43.924Z,0.69
2022-12-01T05:46:15.169Z,0.67
2022-12-01T05:48:44.678Z,0.67
2022-12-01T05:51:17.413Z,0.66
2022-12-01T05:53:48.417Z,0.70
2022-12-01T05:56:19.473Z,0.72
2022-12-01T05:58:50.404Z,0.75
2022-12-01T06:01:21.502Z,0.75
2022-12-01T06:03:53.573Z,0.73
2022-12-01T06:06:24.543Z,0.71
2022-12-01T06:08:55.444Z,0.75
2022-12-01T06:11:26.552Z,0.77
2022-12-01T06:13:57.393Z,0.80
2022-12-01T06:16:28.650Z,0.82
2022-12-01T06:18:58.248Z,0.83
2022-12-01T06:21:29.353Z,0.81
2022-12-01T06:24:00.410Z,0.79
2022-12-01T06:26:31.427Z,0.75
2022-12-01T06:29:02.411Z,0.71
2022-12-01T06:31:33.437Z,0.68
2022-12-01T06:34:04.428Z,0.65
2022-12-01T06:36:35.800Z,0.61
2022-12-01T06:39:10.106Z,0.58
2022-12-01T06:41:41.155Z,0.56
2022-12-01T06:44:13.419Z,0.53
2022-12-01T06:46:44.360Z,0.47
2022-12-01T06:49:15.674Z,0.42
2022-12-01T06:51:45.290Z,0.41
2022-12-01T06:54:18.011Z,0.42
2022-12-01T06:56:49.114Z,0.44
2022-12-01T06:59:20.236Z,0.47
2022-12-01T07:01:49.964Z,0.50
2022-12-01T07:04:21.175Z,0.53
2022-12-01T07:06:52.120Z,0.56
2022-12-01T07:09:23.221Z,0.59
2022-12-01T07:11:54.063Z,0.65
2022-12-01T07:14:27.757Z,0.68
2022-12-01T07:16:59.115Z,0.73
2022-12-01T07:19:30.181Z,0.78
2022-12-01T07:22:01.086Z,0.82
2022-12-01T07:24:32.339Z,0.88
2022-12-01T07:27:01.789Z,0.94
2022-12-01T07:29:32.886Z,0.99
2022-12-01T07:32:04.257Z,1.04
2022-12-01T07:34:35.010Z,1.09
2022-12-01T07:37:06.334Z,1.09
2022-12-01T07:39:36.605Z,1.08
2022-12-01T07:42:07.946Z,1.05
2022-12-01T07:44:38.918Z,1.04
2022-12-01T07:47:09.906Z,1.04
2022-12-01T07:49:40.814Z,1.07
2022-12-01T07:52:11.639Z,1.09
2022-12-01T07:54:42.502Z,1.12
2022-12-01T07:57:15.043Z,1.17
2022-12-01T07:59:45.898Z,1.22
2022-12-01T08:02:17.219Z,1.29
2022-12-01T08:04:48.598Z,1.40
2022-12-01T08:07:19.838Z,1.52
2022-12-01T08:09:50.892Z,1.62
2022-12-01T08:12:22.394Z,1.72
2022-12-01T08:14:53.678Z,1.82
2022-12-01T08:17:25.379Z,1.91
2022-12-01T08:19:56.180Z,1.98
2022-12-01T08:22:27.135Z,2.04
2022-12-01T08:24:56.816Z,2.14
2022-12-01T08:27:27.886Z,2.20
2022-12-01T08:29:58.910Z,2.25
2022-12-01T08:32:30.998Z,2.32
2022-12-01T08:35:02.680Z,2.40
2022-12-01T08:37:33.736Z,2.49
2022-12-01T08:40:05.103Z,2.55
2022-12-01T08:42:36.227Z,2.62
2022-12-01T08:45:08.205Z,2.73
2022-12-01T08:47:39.165Z,2.87
2022-12-01T08:50:12.092Z,3.01
2022-12-01T08:52:43.175Z,3.16
2022-12-01T08:55:14.388Z,3.28
2022-12-01T08:57:45.507Z,3.35
2022-12-01T09:00:17.839Z,3.40
2022-12-01T09:02:48.935Z,3.42
2022-12-01T09:05:19.965Z,3.40
2022-12-01T09:08:11.646Z,3.40
2022-12-01T09:10:42.726Z,3.38
2022-12-01T09:13:13.664Z,3.37
2022-12-01T09:15:44.732Z,3.38
2022-12-01T09:18:15.613Z,3.38
2022-12-01T09:20:47.263Z,3.38
2022-12-01T09:23:18.176Z,3.39
2022-12-01T09:25:49.042Z,3.42
2022-12-01T09:28:20.637Z,3.46
2022-12-01T09:30:51.452Z,3.51
2022-12-01T09:33:23.133Z,3.53
2022-12-01T09:35:54.550Z,3.55
2022-12-01T09:38:25.693Z,3.57
2022-12-01T09:40:55.185Z,3.59
2022-12-01T09:43:30.904Z,3.58
2022-12-01T09:46:07.385Z,3.57
2022-12-01T09:48:43.600Z,3.54
2022-12-01T09:51:18.215Z,3.55
2022-12-01T09:53:52.408Z,3.55
2022-12-01T09:56:26.630Z,3.56
2022-12-01T09:59:01.510Z,3.54
2022-12-01T10:01:37.720Z,3.48
2022-12-01T10:04:15.284Z,3.38
2022-12-01T10:06:50.179Z,3.22
2022-12-01T10:09:26.828Z,3.09
2022-12-01T10:12:07.438Z,2.95
2022-12-01T10:14:39.296Z,2.83
2022-12-01T10:17:20.821Z,2.74
2022-12-01T10:20:00.089Z,2.67
2022-12-01T10:22:46.833Z,2.59
2022-12-01T10:25:24.203Z,2.53
2022-12-01T10:28:06.162Z,2.48
2022-12-01T10:30:42.518Z,2.44
2022-12-01T10:33:23.647Z,2.39
2022-12-01T10:35:55.010Z,2.36
2022-12-01T10:38:29.763Z,2.37
2022-12-01T10:41:03.277Z,2.35
2022-12-01T10:43:39.957Z,2.25
2022-12-01T10:46:25.842Z,2.17
2022-12-01T10:48:59.306Z,2.12
2022-12-01T10:51:30.696Z,2.12
2022-12-01T10:54:08.322Z,2.18
2022-12-01T10:56:43.151Z,2.21
2022-12-01T10:59:28.007Z,2.24
2022-12-01T11:02:00.326Z,2.34
2022-12-01T11:04:42.537Z,2.46
2022-12-01T11:07:19.741Z,2.60
2022-12-01T11:10:01.207Z,2.72
2022-12-01T11:12:32.863Z,2.81
2022-12-01T11:15:06.098Z,2.93
2022-12-01T11:17:40.678Z,3.04
2022-12-01T11:20:37.021Z,3.10
2022-12-01T11:23:28.444Z,3.14
2022-12-01T11:26:15.803Z,3.14
2022-12-01T11:28:58.591Z,3.15
2022-12-01T11:31:40.682Z,3.22
2022-12-01T11:34:21.739Z,3.31
2022-12-01T11:36:55.878Z,3.37
2022-12-01T11:39:31.929Z,3.45
2022-12-01T11:42:06.187Z,3.52
2022-12-01T11:44:51.398Z,3.54
2022-12-01T11:47:25.540Z,3.56
2022-12-01T11:49:59.393Z,3.58
2022-12-01T11:52:34.571Z,3.62
2022-12-01T11:55:22.961Z,3.63
2022-12-01T11:57:56.637Z,3.60
2022-12-01T12:00:30.010Z,3.55
2022-12-01T12:03:12.957Z,3.51
2022-12-01T12:06:32.386Z,3.47
2022-12-01T12:09:08.197Z,3.44
2022-12-01T12:11:49.577Z,3.44
2022-12-01T12:14:42.120Z,3.45
2022-12-01T12:17:27.812Z,3.48
2022-12-01T12:20:25.739Z,3.53
2022-12-01T12:23:09.643Z,3.53
2022-12-01T12:25:57.427Z,3.48
2022-12-01T12:28:38.046Z,3.46
2022-12-01T12:31:18.115Z,3.45
2022-12-01T12:34:08.258Z,3.43
2022-12-01T12:36:51.641Z,3.42
2022-12-01T12:39:36.617Z,3.46
2022-12-01T12:42:18.034Z,3.45
2022-12-01T12:44:57.290Z,3.42
2022-12-01T12:47:42.774Z,3.43
2022-12-01T12:50:25.047Z,3.45
2022-12-01T12:52:59.139Z,3.47
2022-12-01T12:55:34.939Z,3.44
2022-12-01T12:58:14.087Z,3.35
2022-12-01T13:00:50.823Z,3.25
2022-12-01T13:03:32.224Z,3.15
2022-12-01T13:06:10.113Z,3.07
2022-12-01T13:08:45.319Z,3.00
2022-12-01T13:11:21.494Z,2.94
2022-12-01T13:13:59.601Z,2.88
2022-12-01T13:16:34.793Z,2.84
2022-12-01T13:19:12.546Z,2.80
2022-12-01T13:21:45.888Z,2.75
2022-12-01T13:24:23.080Z,2.69
2022-12-01T13:26:55.801Z,2.60
2022-12-01T13:29:28.882Z,2.51
2022-12-01T13:31:59.825Z,2.41
2022-12-01T13:34:39.136Z,2.29
2022-12-01T13:37:11.599Z,2.20
2022-12-01T13:39:45.730Z,2.14
2022-12-01T13:42:25.534Z,2.09
2022-12-01T13:44:59.544Z,2.02
2022-12-01T13:47:39.732Z,1.95
2022-12-01T13:50:56.085Z,1.87
2022-12-01T13:53:32.662Z,1.81
2022-12-01T13:56:39.542Z,1.78
2022-12-01T14:00:04.181Z,1.76
2022-12-01T14:02:37.059Z,1.67
2022-12-01T14:05:43.714Z,1.60
2022-12-01T14:08:23.651Z,1.50
2022-12-01T14:11:01.952Z,1.42
2022-12-01T14:13:43.425Z,1.37
2022-12-01T14:16:14.518Z,1.27
2022-12-01T14:18:50.685Z,1.19
2022-12-01T14:21:47.753Z,1.12
2022-12-01T14:24:27.866Z,1.08
2022-12-01T14:26:58.878Z,1.04
2022-12-01T14:29:36.101Z,1.01
2022-12-01T14:32:26.891Z,0.97
2022-12-01T14:35:05.006Z,0.93
2022-12-01T14:37:48.637Z,0.86
2022-12-01T14:40:31.214Z,0.79
2022-12-01T14:43:19.843Z,0.74
2022-12-01T14:45:58.286Z,0.66
2022-12-01T14:48:38.557Z,0.62
2022-12-01T14:51:23.548Z,0.56
2022-12-01T14:53:55.606Z,0.46
2022-12-01T14:56:27.936Z,0.38
2022-12-01T14:59:00.985Z,0.31
2022-12-01T15:01:36.285Z,0.24
2022-12-01T15:04:08.323Z,0.19
2022-12-01T15:06:40.518Z,0.12
2022-12-01T15:12:08.017Z,-0.03
2022-12-01T15:14:47.276Z,-0.09
2022-12-01T15:17:32.078Z,-0.14
2022-12-01T15:20:03.280Z,-0.19
2022-12-01T15:22:36.054Z,-0.26
2022-12-01T15:25:14.627Z,-0.30
2022-12-01T15:27:46.948Z,-0.34
2022-12-01T15:30:19.387Z,-0.39
2022-12-01T15:32:50.521Z,-0.43
2022-12-01T15:35:24.136Z,-0.47
2022-12-01T15:37:56.531Z,-0.48
2022-12-01T15:41:06.656Z,-0.50
2022-12-01T15:43:21.756Z,-0.53
2022-12-01T15:45:57.739Z,-0.55
2022-12-01T15:48:32.184Z,-0.57
2022-12-01T15:51:07.173Z,-0.58
2022-12-01T15:53:42.765Z,-0.58
2022-12-01T15:56:15.065Z,-0.58
2022-12-01T15:58:48.825Z,-0.59
2022-12-01T16:01:21.928Z,-0.59
2022-12-01T16:03:58.555Z,-0.60
2022-12-01T16:06:31.850Z,-0.61
2022-12-01T16:09:05.902Z,-0.60
2022-12-01T16:11:37.012Z,-0.59
2022-12-01T16:14:22.751Z,-0.58
2022-12-01T16:16:54.463Z,-0.59
2022-12-01T16:19:33.282Z,-0.61
2022-12-01T16:22:17.498Z,-0.61
2022-12-01T16:24:52.203Z,-0.59
2022-12-01T16:27:28.746Z,-0.57
2022-12-01T16:30:02.270Z,-0.57
2022-12-01T16:32:38.022Z,-0.55
2022-12-01T16:35:23.908Z,-0.55
2022-12-01T16:37:55.291Z,-0.55
2022-12-01T16:40:24.956Z,-0.52
2022-12-01T16:42:56.506Z,-0.52
2022-12-01T16:45:28.296Z,-0.53
2022-12-01T16:48:02.426Z,-0.53
2022-12-01T16:50:39.243Z,-0.54
2022-12-01T16:53:11.585Z,-0.58
2022-12-01T16:55:48.364Z,-0.56
2022-12-01T16:58:19.574Z,-0.55
2022-12-01T17:00:52.730Z,-0.55
2022-12-01T17:03:25.755Z,-0.57
2022-12-01T17:05:57.480Z,-0.59
2022-12-01T17:08:28.687Z,-0.64
2022-12-01T17:10:59.820Z,-0.67
2022-12-01T17:13:30.565Z,-0.67
2022-12-01T17:16:07.070Z,-0.68
2022-12-01T17:18:39.202Z,-0.68
2022-12-01T17:21:12.046Z,-0.68
2022-12-01T17:23:43.226Z,-0.70
2022-12-01T17:26:18.380Z,-0.72
2022-12-01T17:28:49.816Z,-0.71
2022-12-01T17:31:20.720Z,-0.72
2022-12-01T17:33:52.003Z,-0.73
2022-12-01T17:36:22.935Z,-0.73
2022-12-01T17:38:53.841Z,-0.72
2022-12-01T17:41:25.599Z,-0.71
2022-12-01T17:43:56.523Z,-0.69
2022-12-01T17:46:27.411Z,-0.69
2022-12-01T17:48:58.559Z,-0.69
2022-12-01T17:51:29.612Z,-0.71
2022-12-01T17:54:00.580Z,-0.73
2022-12-01T17:56:31.790Z,-0.75
2022-12-01T17:59:02.648Z,-0.74
2022-12-01T18:01:33.774Z,-0.74
2022-12-01T18:04:04.818Z,-0.75
2022-12-01T18:06:35.989Z,-0.75
2022-12-01T18:09:07.472Z,-0.76
2022-12-01T18:11:38.333Z,-0.75
2022-12-01T18:14:09.257Z,-0.75
2022-12-01T18:16:40.121Z,-0.76
2022-12-01T18:19:11.626Z,-0.76
2022-12-01T18:21:43.048Z,-0.77
2022-12-01T18:24:12.310Z,-0.76
2022-12-01T18:26:43.546Z,-0.76
2022-12-01T18:29:18.454Z,-0.73
2022-12-01T18:31:49.601Z,-0.72
2022-12-01T18:34:20.611Z,-0.71
2022-12-01T18:36:51.865Z,-0.69
2022-12-01T18:39:23.213Z,-0.68
2022-12-01T18:41:54.201Z,-0.66
2022-12-01T18:44:25.254Z,-0.66
2022-12-01T18:46:57.373Z,-0.63
2022-12-01T18:49:28.369Z,-0.62
2022-12-01T18:52:00.353Z,-0.61
2022-12-01T18:54:31.103Z,-0.60
2022-12-01T18:57:01.970Z,-0.59
2022-12-01T18:59:33.049Z,-0.59
2022-12-01T19:02:03.911Z,-0.58
2022-12-01T19:04:34.951Z,-0.57
2022-12-01T19:07:06.219Z,-0.58
2022-12-01T19:09:37.385Z,-0.57
2022-12-01T19:12:08.931Z,-0.57
2022-12-01T19:14:40.030Z,-0.56
2022-12-01T19:17:11.111Z,-0.56
2022-12-01T19:19:42.026Z,-0.56
2022-12-01T19:22:13.053Z,-0.55
2022-12-01T19:24:49.843Z,-0.55
2022-12-01T19:27:21.415Z,-0.53
2022-12-01T19:29:53.966Z,-0.50
2022-12-01T19:32:25.879Z,-0.48
2022-12-01T19:34:56.641Z,-0.47
2022-12-01T19:37:27.928Z,-0.46
2022-12-01T19:39:58.810Z,-0.45
2022-12-01T19:42:30.348Z,-0.43
2022-12-01T19:45:02.048Z,-0.43
2022-12-01T19:47:35.141Z,-0.42
2022-12-01T19:50:07.173Z,-0.43
2022-12-01T19:52:41.325Z,-0.42
2022-12-01T19:55:13.074Z,-0.40
2022-12-01T19:57:43.948Z,-0.38
2022-12-01T20:00:16.429Z,-0.36
2022-12-01T20:02:47.512Z,-0.33
2022-12-01T20:05:18.776Z,-0.29
2022-12-01T20:07:49.990Z,-0.29
2022-12-01T20:10:21.101Z,-0.28
2022-12-01T20:12:52.735Z,-0.25
2022-12-01T20:15:23.873Z,-0.22
2022-12-01T20:17:54.716Z,-0.21
2022-12-01T20:20:25.701Z,-0.23
2022-12-01T20:22:56.631Z,-0.24
2022-12-01T20:25:27.458Z,-0.24
2022-12-01T20:27:58.554Z,-0.25
2022-12-01T20:30:29.299Z,-0.25
2022-12-01T20:33:00.351Z,-0.25
2022-12-01T20:35:31.423Z,-0.24
2022-12-01T20:38:03.314Z,-0.24
2022-12-01T20:40:34.327Z,-0.24
2022-12-01T20:43:05.161Z,-0.24
2022-12-01T20:45:36.095Z,-0.25
2022-12-01T20:48:07.537Z,-0.26
2022-12-01T20:50:38.794Z,-0.28
2022-12-01T20:53:09.681Z,-0.28
2022-12-01T20:55:40.637Z,-0.28
2022-12-01T20:58:11.624Z,-0.29
2022-12-01T21:00:44.271Z,-0.29
2022-12-01T21:03:15.889Z,-0.29
2022-12-01T21:05:45.277Z,-0.28
2022-12-01T21:08:16.701Z,-0.27
2022-12-01T21:10:46.993Z,-0.25
2022-12-01T21:13:42.392Z,-0.25
2022-12-01T21:16:19.170Z,-0.24
2022-12-01T21:18:53.779Z,-0.27
2022-12-01T21:21:27.654Z,-0.25
2022-12-01T21:24:11.953Z,-0.24
2022-12-01T21:26:47.062Z,-0.24
2022-12-01T21:29:21.926Z,-0.24
2022-12-01T21:31:56.211Z,-0.23
2022-12-01T21:34:28.423Z,-0.22
2022-12-01T21:37:02.518Z,-0.22
2022-12-01T21:39:35.644Z,-0.21
2022-12-01T21:42:18.117Z,-0.20
2022-12-01T21:44:49.736Z,-0.17
2022-12-01T21:47:23.028Z,-0.13
2022-12-01T21:49:56.642Z,-0.08
2022-12-01T21:52:31.877Z,-0.06
2022-12-01T21:55:26.167Z,-0.06
2022-12-01T21:57:57.370Z,-0.07
2022-12-01T22:00:30.894Z,-0.08
2022-12-01T22:03:27.159Z,-0.06
2022-12-01T22:06:28.336Z,-0.05
2022-12-01T22:08:55.383Z,-0.03
2022-12-01T22:11:28.096Z,-0.01
2022-12-01T22:14:12.014Z,-0.01
2022-12-01T22:16:45.617Z,-0.00
2022-12-01T22:19:26.911Z,0.00
2022-12-01T22:22:02.834Z,0.01
2022-12-01T22:24:41.353Z,0.00
2022-12-01T22:27:29.070Z,0.01
2022-12-01T22:30:03.022Z,0.03
2022-12-01T22:32:45.580Z,0.03
2022-12-01T22:35:25.207Z,0.01
2022-12-01T22:38:00.295Z,-0.00
2022-12-01T22:40:40.139Z,-0.02
2022-12-01T22:43:26.392Z,-0.03
2022-12-01T22:46:11.350Z,-0.04
2022-12-01T22:48:44.820Z,-0.06
2022-12-01T22:51:30.969Z,-0.08
2022-12-01T22:54:23.526Z,-0.10
2022-12-01T22:57:13.724Z,-0.10
2022-12-01T22:59:43.612Z,-0.12
2022-12-01T23:02:22.942Z,-0.14
2022-12-01T23:04:56.904Z,-0.13
2022-12-01T23:07:33.165Z,-0.12
2022-12-01T23:10:12.819Z,-0.10
2022-12-01T23:12:44.196Z,-0.09
2022-12-01T23:15:23.671Z,-0.10
2022-12-01T23:17:54.878Z,-0.10
2022-12-01T23:20:33.080Z,-0.12
2022-12-01T23:23:08.969Z,-0.13
2022-12-01T23:25:41.167Z,-0.13
2022-12-01T23:28:13.604Z,-0.14
2022-12-01T23:30:45.982Z,-0.13
2022-12-01T23:33:22.818Z,-0.14
2022-12-01T23:35:58.464Z,-0.13
2022-12-01T23:38:37.363Z,-0.14
2022-12-01T23:41:11.761Z,-0.12
2022-12-01T23:43:45.305Z,-0.11
2022-12-01T23:46:19.081Z,-0.13
2022-12-01T23:48:53.229Z,-0.14
2022-12-01T23:51:27.479Z,-0.13
2022-12-01T23:53:59.874Z,-0.13
2022-12-01T23:56:33.082Z,-0.14
2022-12-01T23:59:04.132Z,-0.14
